createdAt,value
2018-12-29T00:00:27.088Z,101660.40
2018-12-29T00:02:57.833Z,101662.71
2018-12-29T00:05:30.255Z,101673.81
2018-12-29T00:08:03.257Z,101670.13
2018-12-29T00:10:40.988Z,101665.67
2018-12-29T00:13:12.448Z,101670.50
2018-12-29T00:15:44.184Z,101680.56
2018-12-29T00:18:17.572Z,101672.95
2018-12-29T00:20:48.670Z,101672.08
2018-12-29T00:23:19.614Z,101670.27
2018-12-29T00:25:50.430Z,101677.69
2018-12-29T00:28:21.491Z,101673.39
2018-12-29T00:30:58.043Z,101673.92
2018-12-29T00:33:31.974Z,101674.63
2018-12-29T00:36:02.739Z,101674.70
2018-12-29T00:38:35.648Z,101676.32
2018-12-29T00:41:06.402Z,101665.72
2018-12-29T00:43:38.300Z,101667.87
2018-12-29T00:46:09.527Z,101662.52
2018-12-29T00:48:40.682Z,101670.89
2018-12-29T00:51:12.294Z,101673.39
2018-12-29T00:53:47.144Z,101667.37
2018-12-29T00:56:17.791Z,101669.45
2018-12-29T00:59:14.041Z,101669.58
2018-12-29T01:01:44.673Z,101666.22
2018-12-29T01:04:15.335Z,101660.91
2018-12-29T01:06:48.268Z,101660.84
2018-12-29T01:09:18.973Z,101659.27
2018-12-29T01:11:50.044Z,101652.84
2018-12-29T01:14:20.730Z,101659.45
2018-12-29T01:16:51.939Z,101661.33
2018-12-29T01:19:22.458Z,101658.98
2018-12-29T01:21:52.733Z,101649.61
2018-12-29T01:24:23.387Z,101652.54
2018-12-29T01:26:53.678Z,101655.05
2018-12-29T01:29:23.814Z,101652.78
2018-12-29T01:31:54.042Z,101648.66
2018-12-29T01:34:24.343Z,101651.48
2018-12-29T01:36:54.620Z,101646.72
2018-12-29T01:39:25.123Z,101641.73
2018-12-29T01:41:55.437Z,101631.06
2018-12-29T01:44:25.672Z,101633.69
2018-12-29T01:46:56.329Z,101632.68
2018-12-29T01:49:26.595Z,101639.23
2018-12-29T01:51:56.945Z,101645.73
2018-12-29T01:54:27.396Z,101650.90
2018-12-29T01:56:57.701Z,101660.20
2018-12-29T01:59:28.774Z,101661.13
2018-12-29T02:01:59.117Z,101659.14
2018-12-29T02:04:29.988Z,101654.71
2018-12-29T02:07:00.272Z,101651.80
2018-12-29T02:09:30.557Z,101649.80
2018-12-29T02:12:01.055Z,101654.27
2018-12-29T02:14:31.389Z,101644.05
2018-12-29T02:17:01.946Z,101641.23
2018-12-29T02:19:32.235Z,101636.50
2018-12-29T02:22:02.502Z,101640.25
2018-12-29T02:24:32.853Z,101645.09
2018-12-29T02:27:03.108Z,101654.27
2018-12-29T02:29:33.489Z,101648.03
2018-12-29T02:32:03.758Z,101642.84
2018-12-29T02:34:33.990Z,101650.42
2018-12-29T02:37:04.304Z,101646.41
2018-12-29T02:39:34.633Z,101627.33
2018-12-29T02:42:05.030Z,101621.40
2018-12-29T02:44:35.245Z,101624.62
2018-12-29T02:47:05.942Z,101629.38
2018-12-29T02:49:36.176Z,101623.27
2018-12-29T02:52:06.778Z,101626.58
2018-12-29T02:54:37.588Z,101632.12
2018-12-29T02:57:07.924Z,101623.94
2018-12-29T02:59:38.477Z,101627.08
2018-12-29T03:02:11.789Z,101629.38
2018-12-29T03:04:42.071Z,101624.52
2018-12-29T03:07:12.514Z,101622.09
2018-12-29T03:09:42.804Z,101626.14
2018-12-29T03:12:13.374Z,101625.83
2018-12-29T03:14:43.819Z,101624.64
2018-12-29T03:17:17.144Z,101622.63
2018-12-29T03:19:47.485Z,101620.31
2018-12-29T03:22:17.785Z,101621.69
2018-12-29T03:24:48.115Z,101618.70
2018-12-29T03:27:18.469Z,101619.63
2018-12-29T03:29:48.724Z,101610.45
2018-12-29T03:32:53.479Z,101610.34
2018-12-29T03:35:23.719Z,101613.55
2018-12-29T03:37:54.097Z,101615.80
2018-12-29T03:40:24.476Z,101610.45
2018-12-29T03:42:55.178Z,101606.05
2018-12-29T03:45:25.448Z,101603.44
2018-12-29T03:47:55.858Z,101602.52
2018-12-29T03:50:26.221Z,101603.06
2018-12-29T03:52:56.615Z,101598.38
2018-12-29T03:55:26.956Z,101601.20
2018-12-29T03:57:57.280Z,101600.28
2018-12-29T04:00:28.304Z,101599.28
2018-12-29T04:02:58.615Z,101587.85
2018-12-29T04:05:28.955Z,101598.20
2018-12-29T04:07:59.204Z,101596.83
2018-12-29T04:10:29.548Z,101595.77
2018-12-29T04:13:01.553Z,101588.83
2018-12-29T04:15:31.844Z,101595.66
2018-12-29T04:18:02.242Z,101592.84
2018-12-29T04:20:32.515Z,101591.34
2018-12-29T04:23:03.088Z,101583.98
2018-12-29T04:25:33.939Z,101585.45
2018-12-29T04:28:04.673Z,101590.49
2018-12-29T04:30:35.414Z,101586.36
2018-12-29T04:33:05.727Z,101584.69
2018-12-29T04:35:36.642Z,101589.31
2018-12-29T04:38:07.611Z,101595.97
2018-12-29T04:40:38.146Z,101592.41
2018-12-29T04:43:08.565Z,101590.59
2018-12-29T04:45:39.669Z,101592.86
2018-12-29T04:48:10.109Z,101597.48
2018-12-29T04:50:40.832Z,101601.50
2018-12-29T04:53:11.116Z,101602.53
2018-12-29T04:55:41.970Z,101594.75
2018-12-29T04:58:12.335Z,101598.80
2018-12-29T05:00:42.790Z,101601.09
2018-12-29T05:03:13.061Z,101593.65
2018-12-29T05:05:43.506Z,101596.88
2018-12-29T05:08:15.051Z,101596.66
2018-12-29T05:10:45.301Z,101601.20
2018-12-29T05:13:15.562Z,101607.78
2018-12-29T05:15:45.957Z,101605.69
2018-12-29T05:18:16.267Z,101599.86
2018-12-29T05:20:46.582Z,101613.44
2018-12-29T05:23:17.022Z,101603.96
2018-12-29T05:25:47.313Z,101608.11
2018-12-29T05:28:17.537Z,101607.64
2018-12-29T05:30:48.038Z,101607.89
2018-12-29T05:33:18.348Z,101621.97
2018-12-29T05:35:51.365Z,101615.30
2018-12-29T05:38:21.688Z,101612.06
2018-12-29T05:40:53.241Z,101617.78
2018-12-29T05:43:23.579Z,101619.03
2018-12-29T05:45:53.984Z,101620.23
2018-12-29T05:48:24.618Z,101617.78
2018-12-29T05:50:59.659Z,101612.32
2018-12-29T05:53:29.908Z,101620.34
2018-12-29T05:56:00.598Z,101616.47
2018-12-29T05:58:30.996Z,101616.22
2018-12-29T06:01:01.386Z,101612.98
2018-12-29T06:03:31.843Z,101611.30
2018-12-29T06:06:49.253Z,101621.16
2018-12-29T06:09:20.950Z,101627.20
2018-12-29T06:11:52.326Z,101618.25
2018-12-29T06:14:22.551Z,101627.78
2018-12-29T06:16:54.420Z,101637.48
2018-12-29T06:19:24.802Z,101634.95
2018-12-29T06:21:55.119Z,101627.98
2018-12-29T06:24:25.790Z,101632.45
2018-12-29T06:26:56.144Z,101633.00
2018-12-29T06:29:26.343Z,101638.03
2018-12-29T06:31:57.342Z,101645.53
2018-12-29T06:34:27.817Z,101643.02
2018-12-29T06:36:58.548Z,101644.33
2018-12-29T06:39:29.009Z,101635.66
2018-12-29T06:41:59.518Z,101642.05
2018-12-29T06:44:30.066Z,101637.70
2018-12-29T06:47:00.459Z,101636.92
2018-12-29T06:49:30.593Z,101635.53
2018-12-29T06:52:00.991Z,101640.98
2018-12-29T06:54:31.662Z,101647.31
2018-12-29T06:57:02.036Z,101646.50
2018-12-29T06:59:32.463Z,101642.89
2018-12-29T07:02:02.879Z,101643.77
2018-12-29T07:04:33.275Z,101649.22
2018-12-29T07:07:03.602Z,101648.13
2018-12-29T07:09:34.072Z,101650.73
2018-12-29T07:12:04.926Z,101663.83
2018-12-29T07:14:35.170Z,101659.78
2018-12-29T07:17:06.140Z,101664.00
2018-12-29T07:19:36.428Z,101664.00
2018-12-29T07:22:06.757Z,101660.29
2018-12-29T07:24:37.443Z,101658.27
2018-12-29T07:27:07.717Z,101667.11
2018-12-29T07:29:38.604Z,101665.42
2018-12-29T07:32:08.916Z,101668.75
2018-12-29T07:34:39.442Z,101666.55
2018-12-29T07:37:10.006Z,101664.53
2018-12-29T07:39:40.311Z,101669.34
2018-12-29T07:42:10.987Z,101672.89
2018-12-29T07:44:41.195Z,101668.68
2018-12-29T07:47:12.892Z,101668.31
2018-12-29T07:49:43.392Z,101674.04
2018-12-29T07:52:13.734Z,101673.20
2018-12-29T07:54:44.317Z,101677.63
2018-12-29T07:57:14.741Z,101675.67
2018-12-29T07:59:44.986Z,101680.85
2018-12-29T08:02:15.240Z,101675.67
2018-12-29T08:04:46.080Z,101673.80
2018-12-29T08:07:16.591Z,101679.43
2018-12-29T08:09:47.564Z,101681.45
2018-12-29T08:12:18.165Z,101679.97
2018-12-29T08:14:49.879Z,101677.84
2018-12-29T08:17:20.271Z,101684.51
2018-12-29T08:19:50.562Z,101673.81
2018-12-29T08:22:20.878Z,101673.86
2018-12-29T08:24:51.409Z,101676.20
2018-12-29T08:27:21.866Z,101680.13
2018-12-29T08:29:52.235Z,101677.56
2018-12-29T08:32:22.535Z,101685.91
2018-12-29T08:34:53.455Z,101688.14
2018-12-29T08:37:24.734Z,101687.54
2018-12-29T08:40:18.306Z,101690.05
2018-12-29T08:42:48.621Z,101691.65
2018-12-29T08:45:18.957Z,101684.22
2018-12-29T08:47:49.267Z,101687.72
2018-12-29T08:50:19.870Z,101686.72
2018-12-29T08:52:50.296Z,101693.80
2018-12-29T08:55:20.516Z,101693.88
2018-12-29T08:57:50.823Z,101694.09
2018-12-29T09:00:21.281Z,101693.43
2018-12-29T09:02:51.698Z,101695.39
2018-12-29T09:05:21.941Z,101691.72
2018-12-29T09:07:52.621Z,101689.25
2018-12-29T09:10:22.929Z,101690.92
2018-12-29T09:12:53.270Z,101691.91
2018-12-29T09:15:23.757Z,101681.84
2018-12-29T09:17:54.069Z,101690.66
2018-12-29T09:20:24.654Z,101686.80
2018-12-29T09:22:55.497Z,101680.25
2018-12-29T09:25:26.733Z,101687.30
2018-12-29T09:27:57.119Z,101685.06
2018-12-29T09:30:27.420Z,101694.17
2018-12-29T09:32:57.742Z,101693.39
2018-12-29T09:35:28.514Z,101696.98
2018-12-29T09:37:58.947Z,101698.06
2018-12-29T09:40:29.236Z,101705.98
2018-12-29T09:42:59.659Z,101698.17
2018-12-29T09:45:30.429Z,101698.69
2018-12-29T09:48:01.209Z,101690.64
2018-12-29T09:50:31.910Z,101693.19
2018-12-29T09:53:02.297Z,101690.55
2018-12-29T09:55:32.577Z,101685.48
2018-12-29T09:58:02.900Z,101687.48
2018-12-29T10:00:33.724Z,101696.91
2018-12-29T10:03:04.107Z,101683.63
2018-12-29T10:05:34.528Z,101673.94
2018-12-29T10:08:04.853Z,101663.62
2018-12-29T10:10:36.582Z,101663.09
2018-12-29T10:13:07.345Z,101653.44
2018-12-29T10:15:38.064Z,101644.50
2018-12-29T10:18:09.549Z,101649.77
2018-12-29T10:20:39.941Z,101647.77
2018-12-29T10:23:10.273Z,101646.08
2018-12-29T10:25:40.763Z,101637.59
2018-12-29T10:28:14.518Z,101631.31
2018-12-29T10:30:46.811Z,101620.14
2018-12-29T10:33:18.141Z,101629.53
2018-12-29T10:35:49.270Z,101623.55
2018-12-29T10:38:19.668Z,101622.97
2018-12-29T10:40:50.285Z,101614.30
2018-12-29T10:43:20.543Z,101606.77
2018-12-29T10:45:50.920Z,101605.38
2018-12-29T10:48:21.184Z,101596.27
2018-12-29T10:50:51.718Z,101595.91
2018-12-29T10:53:21.874Z,101590.66
2018-12-29T10:55:52.403Z,101575.36
2018-12-29T10:58:22.696Z,101573.08
2018-12-29T11:00:53.966Z,101563.34
2018-12-29T11:03:24.226Z,101553.78
2018-12-29T11:05:54.552Z,101566.13
2018-12-29T11:08:26.789Z,101583.10
2018-12-29T11:10:57.077Z,101575.17
2018-12-29T11:17:09.719Z,101583.84
2018-12-29T11:19:40.014Z,101570.39
2018-12-29T11:22:10.326Z,101568.45
2018-12-29T11:24:40.727Z,101569.34
2018-12-29T11:27:11.265Z,101568.46
2018-12-29T11:29:42.305Z,101559.67
2018-12-29T11:32:12.551Z,101554.86
2018-12-29T11:34:43.353Z,101553.09
2018-12-29T11:37:13.726Z,101552.84
2018-12-29T11:39:44.065Z,101537.26
2018-12-29T11:42:14.349Z,101529.59
2018-12-29T11:44:44.723Z,101530.77
2018-12-29T11:47:15.139Z,101531.95
2018-12-29T11:49:45.799Z,101531.29
2018-12-29T11:52:16.131Z,101526.83
2018-12-29T11:54:46.471Z,101517.03
2018-12-29T11:57:16.682Z,101518.16
2018-12-29T11:59:47.057Z,101514.09
2018-12-29T12:02:24.317Z,101515.40
2018-12-29T12:04:49.409Z,101517.61
2018-12-29T12:07:19.734Z,101514.73
2018-12-29T12:09:50.184Z,101497.00
2018-12-29T12:12:20.634Z,101497.93
2018-12-29T12:14:51.295Z,101492.41
2018-12-29T12:17:22.750Z,101494.83
2018-12-29T12:19:53.117Z,101487.93
2018-12-29T12:22:23.515Z,101488.03
2018-12-29T12:24:55.084Z,101483.14
2018-12-29T12:27:25.425Z,101475.34
2018-12-29T12:29:55.931Z,101476.57
2018-12-29T12:32:26.559Z,101471.84
2018-12-29T12:34:58.056Z,101476.17
2018-12-29T12:37:28.308Z,101472.36
2018-12-29T12:39:58.963Z,101470.98
2018-12-29T12:42:29.675Z,101471.24
2018-12-29T12:45:00.686Z,101471.66
2018-12-29T12:47:31.131Z,101476.25
2018-12-29T12:50:01.505Z,101474.70
2018-12-29T12:52:32.164Z,101464.09
2018-12-29T12:55:02.845Z,101468.36
2018-12-29T12:57:33.335Z,101470.20
2018-12-29T13:00:03.860Z,101472.34
2018-12-29T13:02:34.531Z,101460.22
2018-12-29T13:05:04.891Z,101459.38
2018-12-29T13:07:36.191Z,101457.25
2018-12-29T13:10:10.069Z,101465.22
2018-12-29T13:12:40.505Z,101469.23
2018-12-29T13:15:11.204Z,101464.05
2018-12-29T13:17:43.795Z,101466.53
2018-12-29T13:20:14.442Z,101460.55
2018-12-29T13:22:49.156Z,101454.77
2018-12-29T13:25:23.013Z,101455.97
2018-12-29T13:27:54.923Z,101460.86
2018-12-29T13:30:25.604Z,101447.93
2018-12-29T13:32:56.104Z,101451.84
2018-12-29T13:35:27.079Z,101448.57
2018-12-29T13:37:59.284Z,101450.00
2018-12-29T13:40:29.522Z,101456.77
2018-12-29T13:43:00.386Z,101457.47
2018-12-29T13:45:30.584Z,101455.45
2018-12-29T13:48:00.657Z,101458.00
2018-12-29T13:50:31.057Z,101457.41
2018-12-29T13:53:01.717Z,101434.16
2018-12-29T13:55:32.558Z,101457.55
2018-12-29T13:58:02.930Z,101458.25
2018-12-29T14:00:33.423Z,101452.36
2018-12-29T14:03:03.727Z,101447.05
2018-12-29T14:05:34.484Z,101453.52
2018-12-29T14:08:05.160Z,101457.85
2018-12-29T14:10:35.947Z,101468.47
2018-12-29T14:13:06.350Z,101468.25
2018-12-29T14:15:37.863Z,101470.59
2018-12-29T14:18:08.444Z,101463.13
2018-12-29T14:20:38.924Z,101469.81
2018-12-29T14:23:09.961Z,101459.75
2018-12-29T14:25:40.768Z,101454.18
2018-12-29T14:28:11.131Z,101457.74
2018-12-29T14:30:41.331Z,101451.17
2018-12-29T14:33:15.234Z,101450.81
2018-12-29T14:35:45.563Z,101466.80
2018-12-29T14:38:16.000Z,101464.18
2018-12-29T14:40:46.416Z,101454.63
2018-12-29T14:43:16.590Z,101455.62
2018-12-29T14:45:46.951Z,101462.64
2018-12-29T14:48:17.243Z,101452.48
2018-12-29T14:50:47.821Z,101449.45
2018-12-29T14:53:18.314Z,101440.11
2018-12-29T14:55:48.702Z,101447.34
2018-12-29T14:58:20.742Z,101440.79
2018-12-29T15:00:55.282Z,101439.61
2018-12-29T15:03:26.319Z,101420.44
2018-12-29T15:05:59.153Z,101407.91
2018-12-29T15:08:29.825Z,101413.56
2018-12-29T15:11:01.525Z,101418.69
2018-12-29T15:13:32.691Z,101421.62
2018-12-29T15:16:07.108Z,101423.59
2018-12-29T15:18:43.527Z,101419.52
2018-12-29T15:21:14.622Z,101414.48
2018-12-29T15:23:48.063Z,101408.16
2018-12-29T15:26:20.312Z,101393.20
2018-12-29T15:28:50.882Z,101376.27
2018-12-29T15:31:22.170Z,101380.95
2018-12-29T15:33:57.883Z,101379.67
2018-12-29T15:36:29.121Z,101385.78
2018-12-29T15:38:59.586Z,101385.78
2018-12-29T15:41:30.626Z,101386.30
2018-12-29T15:44:01.930Z,101373.11
2018-12-29T15:46:32.628Z,101363.75
2018-12-29T15:49:03.323Z,101354.73
2018-12-29T15:51:33.909Z,101359.47
2018-12-29T15:54:04.400Z,101359.47
2018-12-29T15:56:35.639Z,101358.02
2018-12-29T15:59:06.194Z,101358.75
2018-12-29T16:01:36.637Z,101362.02
2018-12-29T16:04:07.076Z,101345.95
2018-12-29T16:06:37.667Z,101345.89
2018-12-29T16:09:09.127Z,101343.41
2018-12-29T16:11:39.962Z,101339.91
2018-12-29T16:14:10.420Z,101327.48
2018-12-29T16:16:40.871Z,101331.72
2018-12-29T16:19:11.529Z,101318.05
2018-12-29T16:21:51.061Z,101318.00
2018-12-29T16:24:22.102Z,101312.55
2018-12-29T16:26:52.715Z,101305.97
2018-12-29T16:29:23.207Z,101311.29
2018-12-29T16:31:53.880Z,101300.33
2018-12-29T16:34:24.303Z,101307.02
2018-12-29T16:36:54.727Z,101289.83
2018-12-29T16:39:25.415Z,101289.95
2018-12-29T16:41:56.463Z,101283.62
2018-12-29T16:44:26.935Z,101283.09
2018-12-29T16:46:57.397Z,101274.58
2018-12-29T16:49:28.162Z,101278.37
2018-12-29T16:51:59.198Z,101269.47
2018-12-29T16:54:30.282Z,101263.92
2018-12-29T16:57:03.336Z,101260.09
2018-12-29T16:59:34.842Z,101258.18
2018-12-29T17:02:05.939Z,101250.78
2018-12-29T17:04:36.595Z,101257.73
2018-12-29T17:07:06.882Z,101264.45
2018-12-29T17:09:37.741Z,101256.04
2018-12-29T17:12:08.885Z,101267.59
2018-12-29T17:14:39.447Z,101266.02
2018-12-29T17:17:09.846Z,101261.14
2018-12-29T17:19:40.618Z,101260.61
2018-12-29T17:22:11.400Z,101263.13
2018-12-29T17:24:41.896Z,101254.42
2018-12-29T17:27:12.721Z,101260.09
2018-12-29T17:29:43.386Z,101264.66
2018-12-29T17:32:13.991Z,101266.08
2018-12-29T17:34:44.538Z,101275.91
2018-12-29T17:37:15.126Z,101285.21
2018-12-29T17:39:46.323Z,101287.17
2018-12-29T17:42:17.052Z,101284.02
2018-12-29T17:44:47.932Z,101295.99
2018-12-29T17:47:18.528Z,101292.31
2018-12-29T17:49:49.174Z,101294.83
2018-12-29T17:52:19.737Z,101296.17
2018-12-29T17:54:50.111Z,101303.77
2018-12-29T17:57:20.690Z,101294.30
2018-12-29T17:59:51.056Z,101301.25
2018-12-29T18:02:21.462Z,101296.62
2018-12-29T18:04:51.863Z,101299.55
2018-12-29T18:07:22.476Z,101296.37
2018-12-29T18:09:57.126Z,101268.14
2018-12-29T18:12:25.575Z,101261.05
2018-12-29T18:14:56.350Z,101253.59
2018-12-29T18:17:30.088Z,101254.16
2018-12-29T18:20:00.580Z,101242.71
2018-12-29T18:22:31.034Z,101245.16
2018-12-29T18:25:01.787Z,101233.67
2018-12-29T18:27:32.234Z,101232.20
2018-12-29T18:30:02.703Z,101214.81
2018-12-29T18:32:33.218Z,101205.05
2018-12-29T18:35:04.636Z,101187.24
2018-12-29T18:37:35.039Z,101173.64
2018-12-29T18:40:07.433Z,101156.62
2018-12-29T18:42:37.721Z,101153.84
2018-12-29T18:45:08.201Z,101142.00
2018-12-29T18:47:39.259Z,101145.11
2018-12-29T18:50:09.788Z,101126.80
2018-12-29T18:52:40.305Z,101119.66
2018-12-29T18:55:13.984Z,101123.91
2018-12-29T18:57:46.375Z,101124.91
2018-12-29T19:00:17.130Z,101125.31
2018-12-29T19:02:47.959Z,101137.23
2018-12-29T19:05:18.604Z,101145.16
2018-12-29T19:07:49.978Z,101136.52
2018-12-29T19:10:21.704Z,101120.86
2018-12-29T19:12:52.243Z,101120.00
2018-12-29T19:15:23.390Z,101106.53
2018-12-29T19:17:54.490Z,101102.39
2018-12-29T19:20:27.470Z,101101.46
2018-12-29T19:23:01.694Z,101098.73
2018-12-29T19:25:34.022Z,101105.66
2018-12-29T19:28:05.038Z,101085.23
2018-12-29T19:30:37.581Z,101081.29
2018-12-29T19:33:08.710Z,101067.16
2018-12-29T19:35:40.662Z,101048.03
2018-12-29T19:38:11.381Z,101035.15
2018-12-29T19:40:42.792Z,101032.39
2018-12-29T19:43:14.813Z,101032.85
2018-12-29T19:45:45.253Z,101017.59
2018-12-29T19:48:15.637Z,101012.18
2018-12-29T19:50:46.693Z,101010.52
2018-12-29T19:53:18.051Z,101008.56
2018-12-29T19:55:49.135Z,101003.70
2018-12-29T19:58:20.612Z,100993.94
2018-12-29T20:00:52.094Z,101002.21
2018-12-29T20:03:23.067Z,100984.19
2018-12-29T20:05:53.970Z,100991.09
2018-12-29T20:08:25.629Z,100959.84
2018-12-29T20:10:58.761Z,100960.56
2018-12-29T20:13:29.327Z,100971.03
2018-12-29T20:15:59.788Z,100969.20
2018-12-29T20:18:31.168Z,100979.14
2018-12-29T20:21:02.731Z,100979.02
2018-12-29T20:23:33.312Z,100975.50
2018-12-29T20:26:03.933Z,100960.58
2018-12-29T20:28:35.041Z,100956.43
2018-12-29T20:31:06.432Z,100954.11
2018-12-29T20:33:37.498Z,100939.59
2018-12-29T20:36:08.092Z,100937.50
2018-12-29T20:38:38.726Z,100913.59
2018-12-29T20:41:09.191Z,100917.70
2018-12-29T20:43:39.738Z,100898.16
2018-12-29T20:46:10.471Z,100894.64
2018-12-29T20:48:40.967Z,100904.45
2018-12-29T20:51:11.458Z,100888.27
2018-12-29T20:53:42.085Z,100893.67
2018-12-29T20:56:18.243Z,100877.44
2018-12-29T20:58:53.186Z,100866.33
2018-12-29T21:01:23.891Z,100877.27
2018-12-29T21:03:56.175Z,100873.16
2018-12-29T21:06:27.109Z,100871.23
2018-12-29T21:08:57.620Z,100869.07
2018-12-29T21:11:28.545Z,100856.84
2018-12-29T21:13:58.966Z,100852.19
2018-12-29T21:16:29.355Z,100853.77
2018-12-29T21:18:59.887Z,100844.34
2018-12-29T21:21:30.444Z,100845.67
2018-12-29T21:24:01.579Z,100840.19
2018-12-29T21:26:32.213Z,100836.57
2018-12-29T21:31:52.791Z,100823.54
2018-12-29T21:34:23.281Z,100813.34
2018-12-29T21:36:53.845Z,100809.81
2018-12-29T21:39:24.260Z,100808.26
2018-12-29T21:41:55.868Z,100789.45
2018-12-29T21:44:26.302Z,100785.81
2018-12-29T21:46:56.817Z,100789.90
2018-12-29T21:49:27.269Z,100790.35
2018-12-29T21:51:57.857Z,100778.27
2018-12-29T21:54:28.289Z,100781.50
2018-12-29T21:56:58.621Z,100787.73
2018-12-29T21:59:29.572Z,100787.98
2018-12-29T22:02:01.234Z,100775.11
2018-12-29T22:04:32.065Z,100761.23
2018-12-29T22:07:02.555Z,100758.61
2018-12-29T22:09:33.654Z,100754.14
2018-12-29T22:12:04.218Z,100748.19
2018-12-29T22:14:35.578Z,100744.88
2018-12-29T22:17:06.107Z,100743.32
2018-12-29T22:19:36.617Z,100749.78
2018-12-29T22:22:06.969Z,100754.56
2018-12-29T22:24:37.454Z,100745.06
2018-12-29T22:27:07.993Z,100745.99
2018-12-29T22:29:38.527Z,100741.22
2018-12-29T22:32:09.196Z,100735.59
2018-12-29T22:34:39.865Z,100724.22
2018-12-29T22:37:15.279Z,100735.52
2018-12-29T22:39:46.263Z,100728.05
2018-12-29T22:42:19.909Z,100728.73
2018-12-29T22:45:31.507Z,100721.00
2018-12-29T22:48:06.195Z,100732.87
2018-12-29T22:50:41.095Z,100725.83
2018-12-29T22:53:12.427Z,100728.08
2018-12-29T22:55:42.832Z,100724.94
2018-12-29T22:58:14.438Z,100725.03
2018-12-29T23:00:46.093Z,100721.58
2018-12-29T23:03:16.862Z,100706.45
2018-12-29T23:05:47.554Z,100709.36
2018-12-29T23:08:18.043Z,100709.00
2018-12-29T23:10:49.601Z,100697.73
2018-12-29T23:13:20.104Z,100704.89
2018-12-29T23:15:50.916Z,100693.45
2018-12-29T23:18:21.529Z,100686.94
2018-12-29T23:20:52.179Z,100686.16
2018-12-29T23:23:23.065Z,100684.91
2018-12-29T23:25:53.758Z,100682.50
2018-12-29T23:28:26.072Z,100679.42
2018-12-29T23:30:57.140Z,100684.80
2018-12-29T23:33:27.705Z,100676.92
2018-12-29T23:36:01.064Z,100681.55
2018-12-29T23:38:31.600Z,100670.77
2018-12-29T23:41:02.297Z,100685.98
2018-12-29T23:43:33.035Z,100695.81
2018-12-29T23:46:04.851Z,100684.67
2018-12-29T23:48:35.249Z,100671.72
2018-12-29T23:51:06.024Z,100680.23
2018-12-29T23:53:37.303Z,100680.97
2018-12-29T23:56:08.545Z,100684.31
2018-12-29T23:58:39.288Z,100676.92
